Date,TemperatureHighF,TemperatureAvgF,TemperatureLowF,DewpointHighF,DewpointAvgF,DewpointLowF,HumidityHigh,HumidityAvg,HumidityLow,PressureMaxIn,PressureMinIn,WindSpeedMaxMPH,WindSpeedAvgMPH,GustSpeedMaxMPH,PrecipitationSumIn
2013-1-1,37,28,13,27,19,5,82,70,54,0.00,40.00,0,-999,0,0.00
2013-1-2,34,16,6,18,-16,-100,77,51,52,0.00,40.00,0,-999,0,0.00
2013-1-3,27,11,1,12,-34,-100,77,39,41,0.00,40.00,0,-999,0,0.00
2013-1-4,40,25,12,29,18,8,89,75,62,0.00,40.00,0,-999,0,0.00
2013-1-5,42,29,17,27,20,12,83,70,51,0.00,40.00,0,-999,0,0.00
2013-1-6,43,30,19,31,24,14,89,80,60,0.00,40.00,0,-999,0,0.00
2013-1-7,41,28,17,32,21,12,93,78,52,0.00,40.00,0,-999,0,0.00
2013-1-8,46,32,18,34,25,13,89,77,60,0.00,40.00,0,-999,0,0.00
2013-1-9,43,33,21,35,28,19,92,83,64,0.00,40.00,0,-999,0,0.00
2013-1-10,43,35,25,32,25,20,84,68,50,0.00,40.00,0,-999,0,0.00
2013-1-11,38,31,22,35,26,18,96,84,69,0.00,40.00,0,-999,0,0.00
2013-1-12,47,38,34,45,37,33,98,95,89,0.00,40.00,0,-999,0,0.00
2013-1-13,49,42,36,47,41,35,99,97,93,0.00,40.00,0,-999,0,0.00
2013-1-14,52,43,33,51,40,26,99,88,63,0.00,40.00,0,-999,0,0.00
2013-1-15,37,30,26,28,25,22,87,79,67,0.00,40.00,0,-999,0,0.00
2013-1-16,34,30,27,31,27,22,94,90,77,0.00,40.00,0,-999,0,0.00
2013-1-17,42,30,24,34,25,14,95,81,65,0.00,40.00,0,-999,0,0.00
2013-1-18,24,17,9,16,4,-1,70,57,41,0.00,40.00,0,-999,0,0.00
2013-1-19,43,31,16,30,22,7,80,69,58,0.00,40.00,0,-999,0,0.00
2013-1-20,48,34,22,33,25,8,84,68,47,0.00,40.00,0,-999,0,0.00
2013-1-21,27,20,13,18,11,4,86,68,50,0.00,40.00,0,-999,0,0.00
2013-1-22,23,14,5,15,-2,-100,88,60,10,0.00,40.00,0,-999,0,0.00
2013-1-23,19,6,1,0,-66,-100,61,17,10,0.00,40.00,0,-999,0,0.00
2013-1-24,17,8,2,-5,-54,-100,50,21,12,0.00,40.00,0,-999,0,0.00
2013-1-25,24,12,2,6,-33,-100,73,33,37,0.00,40.00,0,-999,0,0.00
2013-1-26,23,11,3,8,-30,-100,76,40,44,0.00,40.00,0,-999,0,0.00
2013-1-27,28,15,5,8,-23,-100,70,38,13,0.00,40.00,0,-999,0,0.00
2013-1-28,28,22,10,25,13,-1,91,70,46,0.00,40.00,0,-999,0,0.00
2013-1-29,38,30,25,32,27,23,94,87,74,0.00,40.00,0,-999,0,0.00
2013-1-30,54,46,32,54,45,31,99,98,95,0.00,40.00,0,-999,0,0.00
2013-1-31,54,35,24,54,26,13,99,71,55,0.00,40.00,0,-999,0,0.00